sensor_id;sensor_type;location;lat;lon;timestamp;pressure;altitude;pressure_sealevel;temperature;humidity
12475;BME280;6302;42.624;23.334;2022-11-20T00:01:21;92592.97;;;17.72;86.80
12475;BME280;6302;42.624;23.334;2022-11-20T00:03:49;92584.75;;;17.75;86.52
12475;BME280;6302;42.624;23.334;2022-11-20T00:06:18;92614.66;;;17.83;87.00
12475;BME280;6302;42.624;23.334;2022-11-20T00:08:45;92582.22;;;17.81;87.33
12475;BME280;6302;42.624;23.334;2022-11-20T00:11:15;92566.41;;;17.83;86.40
12475;BME280;6302;42.624;23.334;2022-11-20T00:13:42;92609.00;;;17.90;86.51
12475;BME280;6302;42.624;23.334;2022-11-20T00:16:12;92584.41;;;17.91;86.13
12475;BME280;6302;42.624;23.334;2022-11-20T00:18:39;92620.28;;;17.94;86.51
12475;BME280;6302;42.624;23.334;2022-11-20T00:21:10;92567.28;;;17.89;86.80
12475;BME280;6302;42.624;23.334;2022-11-20T00:23:37;92575.00;;;17.96;85.55
12475;BME280;6302;42.624;23.334;2022-11-20T00:26:05;92556.84;;;17.91;85.82
12475;BME280;6302;42.624;23.334;2022-11-20T00:28:34;92515.19;;;17.90;84.42
12475;BME280;6302;42.624;23.334;2022-11-20T00:31:02;92554.78;;;17.86;85.39
12475;BME280;6302;42.624;23.334;2022-11-20T00:33:31;92535.41;;;17.91;84.66
12475;BME280;6302;42.624;23.334;2022-11-20T00:36:01;92540.16;;;17.96;83.56
12475;BME280;6302;42.624;23.334;2022-11-20T00:38:29;92580.00;;;18.03;82.86
12475;BME280;6302;42.624;23.334;2022-11-20T00:40:56;92569.56;;;18.05;83.15
12475;BME280;6302;42.624;23.334;2022-11-20T00:43:24;92539.25;;;17.99;82.78
12475;BME280;6302;42.624;23.334;2022-11-20T00:45:51;92535.34;;;18.00;82.27
12475;BME280;6302;42.624;23.334;2022-11-20T00:48:22;92586.41;;;18.05;81.01
12475;BME280;6302;42.624;23.334;2022-11-20T00:50:50;92598.28;;;18.13;77.94
12475;BME280;6302;42.624;23.334;2022-11-20T00:53:17;92589.50;;;18.13;79.69
12475;BME280;6302;42.624;23.334;2022-11-20T00:55:52;92604.41;;;18.14;80.26
12475;BME280;6302;42.624;23.334;2022-11-20T00:58:19;92602.47;;;18.14;79.50
12475;BME280;6302;42.624;23.334;2022-11-20T01:00:46;92616.56;;;18.24;78.79
12475;BME280;6302;42.624;23.334;2022-11-20T01:03:13;92582.41;;;18.01;79.34
12475;BME280;6302;42.624;23.334;2022-11-20T01:05:39;92609.41;;;18.21;79.94
12475;BME280;6302;42.624;23.334;2022-11-20T01:08:07;92610.03;;;18.16;80.83
12475;BME280;6302;42.624;23.334;2022-11-20T01:10:34;92586.00;;;17.98;81.14
12475;BME280;6302;42.624;23.334;2022-11-20T01:13:01;92572.25;;;18.05;80.43
12475;BME280;6302;42.624;23.334;2022-11-20T01:15:45;92592.66;;;18.11;81.49
12475;BME280;6302;42.624;23.334;2022-11-20T01:18:12;92600.22;;;18.13;81.53
12475;BME280;6302;42.624;23.334;2022-11-20T01:20:39;92599.66;;;18.09;81.40
12475;BME280;6302;42.624;23.334;2022-11-20T01:23:05;92582.06;;;18.08;81.75
12475;BME280;6302;42.624;23.334;2022-11-20T01:25:34;92570.19;;;18.00;81.62
12475;BME280;6302;42.624;23.334;2022-11-20T01:28:01;92569.56;;;18.05;82.11
12475;BME280;6302;42.624;23.334;2022-11-20T01:30:28;92563.78;;;18.06;81.42
12475;BME280;6302;42.624;23.334;2022-11-20T01:32:55;92519.94;;;17.86;80.10
12475;BME280;6302;42.624;23.334;2022-11-20T01:35:22;92518.13;;;17.92;80.82
12475;BME280;6302;42.624;23.334;2022-11-20T01:37:49;92548.44;;;18.07;81.78
12475;BME280;6302;42.624;23.334;2022-11-20T01:40:16;92527.16;;;18.03;81.81
12475;BME280;6302;42.624;23.334;2022-11-20T01:42:47;92545.16;;;18.03;81.70
12475;BME280;6302;42.624;23.334;2022-11-20T01:45:56;92512.72;;;18.01;80.58
12475;BME280;6302;42.624;23.334;2022-11-20T01:48:26;92551.91;;;17.98;81.95
12475;BME280;6302;42.624;23.334;2022-11-20T01:50:57;92529.41;;;17.96;81.69
12475;BME280;6302;42.624;23.334;2022-11-20T01:53:28;92541.91;;;17.99;80.57
12475;BME280;6302;42.624;23.334;2022-11-20T01:55:59;92540.63;;;17.94;81.04
12475;BME280;6302;42.624;23.334;2022-11-20T01:58:30;92521.09;;;17.94;81.44
12475;BME280;6302;42.624;23.334;2022-11-20T02:00:59;92496.00;;;17.49;81.75
12475;BME280;6302;42.624;23.334;2022-11-20T02:03:27;92555.03;;;17.97;81.75
12475;BME280;6302;42.624;23.334;2022-11-20T02:05:59;92544.59;;;17.99;80.48
12475;BME280;6302;42.624;23.334;2022-11-20T02:08:29;92583.94;;;17.93;81.05
12475;BME280;6302;42.624;23.334;2022-11-20T02:10:56;92564.28;;;17.96;80.23
12475;BME280;6302;42.624;23.334;2022-11-20T02:13:23;92566.66;;;17.94;80.20
12475;BME280;6302;42.624;23.334;2022-11-20T02:16:12;92551.34;;;17.94;80.21
12475;BME280;6302;42.624;23.334;2022-11-20T02:18:39;92549.50;;;17.77;80.55
12475;BME280;6302;42.624;23.334;2022-11-20T02:21:18;92547.78;;;17.88;81.54
12475;BME280;6302;42.624;23.334;2022-11-20T02:24:00;92555.41;;;17.81;80.84
12475;BME280;6302;42.624;23.334;2022-11-20T02:26:27;92570.72;;;17.89;80.21
12475;BME280;6302;42.624;23.334;2022-11-20T02:28:55;92567.56;;;17.91;80.30
12475;BME280;6302;42.624;23.334;2022-11-20T02:31:23;92561.78;;;17.92;80.15
12475;BME280;6302;42.624;23.334;2022-11-20T02:33:54;92554.03;;;17.85;80.34
12475;BME280;6302;42.624;23.334;2022-11-20T02:36:21;92573.69;;;17.91;80.87
12475;BME280;6302;42.624;23.334;2022-11-20T02:38:49;92546.88;;;17.91;81.07
12475;BME280;6302;42.624;23.334;2022-11-20T02:41:17;92551.50;;;17.91;82.31
12475;BME280;6302;42.624;23.334;2022-11-20T02:43:44;92545.59;;;17.78;82.53
12475;BME280;6302;42.624;23.334;2022-11-20T02:46:11;92563.13;;;17.88;82.79
12475;BME280;6302;42.624;23.334;2022-11-20T02:48:38;92572.09;;;17.85;83.87
12475;BME280;6302;42.624;23.334;2022-11-20T02:51:04;92577.47;;;17.76;84.89
12475;BME280;6302;42.624;23.334;2022-11-20T02:53:31;92586.72;;;17.75;85.96
12475;BME280;6302;42.624;23.334;2022-11-20T02:55:58;92551.06;;;17.60;86.21
12475;BME280;6302;42.624;23.334;2022-11-20T02:58:26;92569.91;;;17.74;87.07
12475;BME280;6302;42.624;23.334;2022-11-20T03:00:53;92589.69;;;17.77;87.50
12475;BME280;6302;42.624;23.334;2022-11-20T03:03:20;92579.00;;;17.68;87.90
12475;BME280;6302;42.624;23.334;2022-11-20T03:05:47;92588.69;;;17.65;87.42
12475;BME280;6302;42.624;23.334;2022-11-20T03:08:13;92596.84;;;17.71;87.07
12475;BME280;6302;42.624;23.334;2022-11-20T03:10:40;92612.50;;;17.72;88.09
12475;BME280;6302;42.624;23.334;2022-11-20T03:13:07;92575.59;;;17.67;87.87
12475;BME280;6302;42.624;23.334;2022-11-20T03:15:37;92585.22;;;17.74;86.93
12475;BME280;6302;42.624;23.334;2022-11-20T03:18:04;92583.16;;;17.69;87.90
12475;BME280;6302;42.624;23.334;2022-11-20T03:20:32;92596.84;;;17.71;88.20
12475;BME280;6302;42.624;23.334;2022-11-20T03:22:59;92616.81;;;17.70;88.25
12475;BME280;6302;42.624;23.334;2022-11-20T03:25:26;92590.38;;;17.53;88.13
12475;BME280;6302;42.624;23.334;2022-11-20T03:27:53;92596.88;;;17.62;88.75
12475;BME280;6302;42.624;23.334;2022-11-20T03:30:20;92592.72;;;17.61;88.67
12475;BME280;6302;42.624;23.334;2022-11-20T03:32:49;92585.59;;;17.58;89.09
12475;BME280;6302;42.624;23.334;2022-11-20T03:35:19;92584.84;;;17.48;89.34
12475;BME280;6302;42.624;23.334;2022-11-20T03:37:45;92589.31;;;17.51;89.82
12475;BME280;6302;42.624;23.334;2022-11-20T03:40:12;92585.75;;;17.45;89.20
12475;BME280;6302;42.624;23.334;2022-11-20T03:42:39;92605.84;;;17.49;90.05
12475;BME280;6302;42.624;23.334;2022-11-20T03:45:12;92597.19;;;17.45;90.31
12475;BME280;6302;42.624;23.334;2022-11-20T03:47:39;92609.59;;;17.43;90.58
12475;BME280;6302;42.624;23.334;2022-11-20T03:50:09;92609.88;;;17.45;90.09
12475;BME280;6302;42.624;23.334;2022-11-20T03:52:36;92534.88;;;17.03;89.59
12475;BME280;6302;42.624;23.334;2022-11-20T03:55:03;92614.47;;;17.53;88.52
12475;BME280;6302;42.624;23.334;2022-11-20T03:57:30;92614.16;;;17.51;88.62
12475;BME280;6302;42.624;23.334;2022-11-20T03:59:57;92625.34;;;17.50;88.34
12475;BME280;6302;42.624;23.334;2022-11-20T04:02:23;92625.47;;;17.46;88.82
12475;BME280;6302;42.624;23.334;2022-11-20T04:04:50;92623.09;;;17.48;88.10
12475;BME280;6302;42.624;23.334;2022-11-20T04:07:18;92529.53;;;16.85;87.85
12475;BME280;6302;42.624;23.334;2022-11-20T04:09:45;92614.03;;;17.46;87.41
12475;BME280;6302;42.624;23.334;2022-11-20T04:12:12;92613.59;;;17.38;88.86
12475;BME280;6302;42.624;23.334;2022-11-20T04:14:39;92602.16;;;17.38;88.90
12475;BME280;6302;42.624;23.334;2022-11-20T04:17:05;92608.84;;;17.42;88.68
12475;BME280;6302;42.624;23.334;2022-11-20T04:19:32;92601.84;;;17.36;89.82
12475;BME280;6302;42.624;23.334;2022-11-20T04:21:59;92617.34;;;17.32;90.86
12475;BME280;6302;42.624;23.334;2022-11-20T04:24:27;92637.41;;;17.36;90.83
12475;BME280;6302;42.624;23.334;2022-11-20T04:26:54;92619.25;;;17.31;90.31
12475;BME280;6302;42.624;23.334;2022-11-20T04:29:21;92635.19;;;17.35;90.91
12475;BME280;6302;42.624;23.334;2022-11-20T04:31:47;92647.72;;;17.20;92.04
12475;BME280;6302;42.624;23.334;2022-11-20T04:34:14;92631.50;;;17.14;93.00
12475;BME280;6302;42.624;23.334;2022-11-20T04:36:41;92639.25;;;17.12;93.78
12475;BME280;6302;42.624;23.334;2022-11-20T04:39:12;92624.06;;;17.18;93.91
12475;BME280;6302;42.624;23.334;2022-11-20T04:41:40;92608.59;;;17.04;94.11
12475;BME280;6302;42.624;23.334;2022-11-20T04:44:07;92621.69;;;17.20;94.33
12475;BME280;6302;42.624;23.334;2022-11-20T04:46:35;92624.66;;;17.04;94.80
12475;BME280;6302;42.624;23.334;2022-11-20T04:49:03;92622.59;;;17.08;94.48
12475;BME280;6302;42.624;23.334;2022-11-20T04:51:30;92633.00;;;17.15;93.92
12475;BME280;6302;42.624;23.334;2022-11-20T04:53:57;92633.44;;;17.14;94.49
12475;BME280;6302;42.624;23.334;2022-11-20T04:56:23;92634.78;;;17.09;93.86
12475;BME280;6302;42.624;23.334;2022-11-20T04:58:52;92616.03;;;17.09;93.77
12475;BME280;6302;42.624;23.334;2022-11-20T05:01:20;92615.88;;;17.04;96.05
12475;BME280;6302;42.624;23.334;2022-11-20T05:03:47;92586.91;;;16.93;98.98
12475;BME280;6302;42.624;23.334;2022-11-20T05:06:16;92618.28;;;17.02;100.00
12475;BME280;6302;42.624;23.334;2022-11-20T05:08:43;92629.59;;;16.87;100.00
12475;BME280;6302;42.624;23.334;2022-11-20T05:11:12;92607.44;;;16.87;98.68
12475;BME280;6302;42.624;23.334;2022-11-20T05:13:39;92602.97;;;16.84;99.21
12475;BME280;6302;42.624;23.334;2022-11-20T05:16:09;92604.78;;;16.78;100.00
12475;BME280;6302;42.624;23.334;2022-11-20T05:18:37;92610.13;;;16.78;100.00
12475;BME280;6302;42.624;23.334;2022-11-20T05:21:05;92594.97;;;16.75;100.00
12475;BME280;6302;42.624;23.334;2022-11-20T05:23:32;92560.16;;;16.48;100.00
12475;BME280;6302;42.624;23.334;2022-11-20T05:26:00;92592.13;;;16.69;100.00
12475;BME280;6302;42.624;23.334;2022-11-20T05:28:28;92597.66;;;16.66;100.00
12475;BME280;6302;42.624;23.334;2022-11-20T05:30:55;92574.75;;;16.65;100.00
12475;BME280;6302;42.624;23.334;2022-11-20T05:33:23;92580.72;;;16.69;100.00
12475;BME280;6302;42.624;23.334;2022-11-20T05:35:50;92595.84;;;16.72;100.00
12475;BME280;6302;42.624;23.334;2022-11-20T05:38:17;92587.38;;;16.55;100.00
12475;BME280;6302;42.624;23.334;2022-11-20T05:40:44;92607.72;;;16.62;100.00
12475;BME280;6302;42.624;23.334;2022-11-20T05:43:10;92594.69;;;16.64;100.00
12475;BME280;6302;42.624;23.334;2022-11-20T05:45:37;92604.63;;;16.72;100.00
12475;BME280;6302;42.624;23.334;2022-11-20T05:48:04;92568.78;;;16.43;100.00
12475;BME280;6302;42.624;23.334;2022-11-20T05:50:32;92577.13;;;16.63;100.00
12475;BME280;6302;42.624;23.334;2022-11-20T05:53:00;92527.19;;;16.51;100.00
12475;BME280;6302;42.624;23.334;2022-11-20T05:55:27;92575.03;;;16.67;98.89
12475;BME280;6302;42.624;23.334;2022-11-20T05:57:54;92581.59;;;16.66;99.26
12475;BME280;6302;42.624;23.334;2022-11-20T06:00:21;92587.81;;;16.72;99.97
12475;BME280;6302;42.624;23.334;2022-11-20T06:02:48;92597.63;;;16.75;100.00
12475;BME280;6302;42.624;23.334;2022-11-20T06:05:15;92582.47;;;16.81;99.06
12475;BME280;6302;42.624;23.334;2022-11-20T06:07:43;92600.31;;;16.75;99.59
12475;BME280;6302;42.624;23.334;2022-11-20T06:10:10;92479.06;;;16.05;97.22
12475;BME280;6302;42.624;23.334;2022-11-20T06:12:36;92585.75;;;16.76;97.83
12475;BME280;6302;42.624;23.334;2022-11-20T06:15:04;92594.66;;;16.82;97.60
12475;BME280;6302;42.624;23.334;2022-11-20T06:17:31;92605.97;;;16.86;97.30
12475;BME280;6302;42.624;23.334;2022-11-20T06:19:58;92590.78;;;16.92;96.17
12475;BME280;6302;42.624;23.334;2022-11-20T06:22:25;92591.69;;;16.98;95.72
12475;BME280;6302;42.624;23.334;2022-11-20T06:24:53;92603.84;;;16.99;95.46
12475;BME280;6302;42.624;23.334;2022-11-20T06:27:19;92607.56;;;17.02;95.77
12475;BME280;6302;42.624;23.334;2022-11-20T06:29:46;92618.41;;;17.07;95.18
12475;BME280;6302;42.624;23.334;2022-11-20T06:32:13;92621.69;;;17.02;95.75
12475;BME280;6302;42.624;23.334;2022-11-20T06:34:40;92613.53;;;17.06;93.94
12475;BME280;6302;42.624;23.334;2022-11-20T06:37:07;92605.47;;;17.15;93.63
12475;BME280;6302;42.624;23.334;2022-11-20T06:39:33;92612.94;;;17.11;92.44
12475;BME280;6302;42.624;23.334;2022-11-20T06:42:01;92609.94;;;17.18;92.12
12475;BME280;6302;42.624;23.334;2022-11-20T06:44:28;92601.44;;;17.19;88.33
12475;BME280;6302;42.624;23.334;2022-11-20T06:46:55;92612.44;;;17.30;88.74
12475;BME280;6302;42.624;23.334;2022-11-20T06:49:22;92617.00;;;17.39;88.58
12475;BME280;6302;42.624;23.334;2022-11-20T06:51:49;92614.16;;;17.51;87.01
12475;BME280;6302;42.624;23.334;2022-11-20T06:54:15;92628.47;;;17.58;84.81
12475;BME280;6302;42.624;23.334;2022-11-20T06:56:42;92622.50;;;17.63;85.81
12475;BME280;6302;42.624;23.334;2022-11-20T06:59:14;92621.44;;;17.69;85.20
12475;BME280;6302;42.624;23.334;2022-11-20T07:01:41;92631.94;;;17.82;84.90
12475;BME280;6302;42.624;23.334;2022-11-20T07:04:07;92646.97;;;17.88;85.14
12475;BME280;6302;42.624;23.334;2022-11-20T07:06:34;92647.66;;;17.98;84.70
12475;BME280;6302;42.624;23.334;2022-11-20T07:09:01;92649.78;;;17.94;85.41
12475;BME280;6302;42.624;23.334;2022-11-20T07:11:28;92630.25;;;17.93;86.79
12475;BME280;6302;42.624;23.334;2022-11-20T07:13:56;92640.56;;;17.86;87.39
12475;BME280;6302;42.624;23.334;2022-11-20T07:16:24;92637.44;;;17.87;87.57
12475;BME280;6302;42.624;23.334;2022-11-20T07:18:51;92637.94;;;17.77;86.69
12475;BME280;6302;42.624;23.334;2022-11-20T07:21:18;92664.09;;;17.82;86.49
12475;BME280;6302;42.624;23.334;2022-11-20T07:23:45;92653.25;;;17.76;86.87
12475;BME280;6302;42.624;23.334;2022-11-20T07:26:12;92657.28;;;17.72;86.97
12475;BME280;6302;42.624;23.334;2022-11-20T07:28:39;92645.34;;;17.82;86.63
12475;BME280;6302;42.624;23.334;2022-11-20T07:31:05;92628.09;;;17.74;87.27
12475;BME280;6302;42.624;23.334;2022-11-20T07:33:34;92629.75;;;17.71;87.11
12475;BME280;6302;42.624;23.334;2022-11-20T07:36:01;92624.88;;;17.61;87.18
12475;BME280;6302;42.624;23.334;2022-11-20T07:38:29;92598.13;;;17.42;89.42
12475;BME280;6302;42.624;23.334;2022-11-20T07:40:57;92638.56;;;17.63;91.71
12475;BME280;6302;42.624;23.334;2022-11-20T07:43:27;92647.19;;;17.48;93.55
12475;BME280;6302;42.624;23.334;2022-11-20T07:45:55;92626.09;;;17.41;95.78
12475;BME280;6302;42.624;23.334;2022-11-20T07:48:21;92616.44;;;17.35;95.49
12475;BME280;6302;42.624;23.334;2022-11-20T07:50:53;92625.34;;;17.41;96.91
12475;BME280;6302;42.624;23.334;2022-11-20T07:53:20;92629.97;;;17.31;100.00
12475;BME280;6302;42.624;23.334;2022-11-20T07:55:47;92629.72;;;17.20;100.00
12475;BME280;6302;42.624;23.334;2022-11-20T07:58:14;92630.59;;;17.17;100.00
12475;BME280;6302;42.624;23.334;2022-11-20T08:00:41;92653.50;;;17.09;100.00
12475;BME280;6302;42.624;23.334;2022-11-20T08:03:08;92650.25;;;17.05;100.00
12475;BME280;6302;42.624;23.334;2022-11-20T08:05:34;92637.03;;;16.92;100.00
12475;BME280;6302;42.624;23.334;2022-11-20T08:08:04;92635.38;;;16.95;100.00
12475;BME280;6302;42.624;23.334;2022-11-20T08:10:32;92633.47;;;16.96;100.00
12475;BME280;6302;42.624;23.334;2022-11-20T08:12:59;92638.34;;;17.06;100.00
12475;BME280;6302;42.624;23.334;2022-11-20T08:15:48;92643.25;;;17.17;100.00
12475;BME280;6302;42.624;23.334;2022-11-20T08:18:15;92658.88;;;17.18;100.00
12475;BME280;6302;42.624;23.334;2022-11-20T08:20:42;92659.91;;;17.12;100.00
12475;BME280;6302;42.624;23.334;2022-11-20T08:23:11;92671.63;;;17.23;100.00
12475;BME280;6302;42.624;23.334;2022-11-20T08:25:38;92668.97;;;17.32;98.08
12475;BME280;6302;42.624;23.334;2022-11-20T08:28:06;92670.16;;;17.40;94.00
12475;BME280;6302;42.624;23.334;2022-11-20T08:30:34;92666.25;;;17.41;99.18
12475;BME280;6302;42.624;23.334;2022-11-20T08:33:03;92657.19;;;17.39;100.00
12475;BME280;6302;42.624;23.334;2022-11-20T08:35:33;92649.63;;;17.28;100.00
12475;BME280;6302;42.624;23.334;2022-11-20T08:38:00;92647.53;;;17.32;100.00
12475;BME280;6302;42.624;23.334;2022-11-20T08:40:28;92663.03;;;17.19;100.00
12475;BME280;6302;42.624;23.334;2022-11-20T08:42:55;92694.97;;;17.41;100.00
12475;BME280;6302;42.624;23.334;2022-11-20T08:45:22;92677.88;;;17.38;99.54
12475;BME280;6302;42.624;23.334;2022-11-20T08:47:49;92704.09;;;17.52;100.00
12475;BME280;6302;42.624;23.334;2022-11-20T08:50:16;92701.69;;;17.36;100.00
12475;BME280;6302;42.624;23.334;2022-11-20T08:52:44;92706.31;;;17.27;100.00
12475;BME280;6302;42.624;23.334;2022-11-20T08:55:11;92699.16;;;17.24;100.00
12475;BME280;6302;42.624;23.334;2022-11-20T08:57:39;92714.03;;;17.25;100.00
12475;BME280;6302;42.624;23.334;2022-11-20T09:00:08;92690.13;;;17.03;100.00
12475;BME280;6302;42.624;23.334;2022-11-20T09:02:37;92692.34;;;17.05;100.00
12475;BME280;6302;42.624;23.334;2022-11-20T09:05:05;92704.97;;;17.04;100.00
12475;BME280;6302;42.624;23.334;2022-11-20T09:07:31;92701.41;;;16.98;100.00
12475;BME280;6302;42.624;23.334;2022-11-20T09:09:58;92698.88;;;16.95;100.00
12475;BME280;6302;42.624;23.334;2022-11-20T09:12:25;92701.56;;;16.85;100.00
12475;BME280;6302;42.624;23.334;2022-11-20T09:14:53;92691.59;;;16.86;100.00
12475;BME280;6302;42.624;23.334;2022-11-20T09:17:20;92662.56;;;16.57;100.00
12475;BME280;6302;42.624;23.334;2022-11-20T09:19:47;92689.47;;;16.63;100.00
12475;BME280;6302;42.624;23.334;2022-11-20T09:22:13;92705.16;;;16.43;100.00
12475;BME280;6302;42.624;23.334;2022-11-20T09:24:40;92702.09;;;16.53;100.00
12475;BME280;6302;42.624;23.334;2022-11-20T09:27:08;92695.53;;;16.54;100.00
12475;BME280;6302;42.624;23.334;2022-11-20T09:29:35;92678.56;;;16.39;100.00
12475;BME280;6302;42.624;23.334;2022-11-20T09:32:03;92678.50;;;16.12;100.00
12475;BME280;6302;42.624;23.334;2022-11-20T09:34:30;92676.72;;;16.18;100.00
12475;BME280;6302;42.624;23.334;2022-11-20T09:36:57;92690.56;;;16.35;100.00
12475;BME280;6302;42.624;23.334;2022-11-20T09:39:24;92679.28;;;16.40;100.00
12475;BME280;6302;42.624;23.334;2022-11-20T09:42:10;92666.25;;;16.42;100.00
12475;BME280;6302;42.624;23.334;2022-11-20T09:45:02;92655.38;;;16.36;100.00
12475;BME280;6302;42.624;23.334;2022-11-20T09:47:41;92660.56;;;16.40;100.00
12475;BME280;6302;42.624;23.334;2022-11-20T09:50:23;92652.13;;;16.50;100.00
12475;BME280;6302;42.624;23.334;2022-11-20T09:53:01;92661.50;;;16.46;100.00
12475;BME280;6302;42.624;23.334;2022-11-20T09:55:31;92665.03;;;16.43;100.00
12475;BME280;6302;42.624;23.334;2022-11-20T09:57:59;92633.81;;;16.21;100.00
12475;BME280;6302;42.624;23.334;2022-11-20T10:00:27;92587.16;;;16.13;100.00
12475;BME280;6302;42.624;23.334;2022-11-20T10:03:00;92658.59;;;16.71;100.00
12475;BME280;6302;42.624;23.334;2022-11-20T10:05:31;92656.34;;;16.69;100.00
12475;BME280;6302;42.624;23.334;2022-11-20T10:08:10;92656.19;;;16.73;100.00
12475;BME280;6302;42.624;23.334;2022-11-20T10:10:42;92657.97;;;16.67;100.00
12475;BME280;6302;42.624;23.334;2022-11-20T10:13:20;92635.97;;;16.63;100.00
12475;BME280;6302;42.624;23.334;2022-11-20T10:15:59;92637.63;;;16.78;100.00
12475;BME280;6302;42.624;23.334;2022-11-20T10:18:39;92655.91;;;16.89;100.00
12475;BME280;6302;42.624;23.334;2022-11-20T10:21:19;92648.63;;;16.89;100.00
12475;BME280;6302;42.624;23.334;2022-11-20T10:26:54;92636.56;;;16.85;100.00
12475;BME280;6302;42.624;23.334;2022-11-20T10:29:32;92622.75;;;16.59;100.00
12475;BME280;6302;42.624;23.334;2022-11-20T10:32:02;92642.06;;;16.72;100.00
12475;BME280;6302;42.624;23.334;2022-11-20T10:34:38;92633.03;;;16.88;100.00
12475;BME280;6302;42.624;23.334;2022-11-20T10:37:12;92651.44;;;16.95;100.00
12475;BME280;6302;42.624;23.334;2022-11-20T10:39:45;92659.31;;;16.99;100.00
12475;BME280;6302;42.624;23.334;2022-11-20T10:42:26;92621.44;;;16.64;100.00
12475;BME280;6302;42.624;23.334;2022-11-20T10:45:01;92658.88;;;16.64;100.00
12475;BME280;6302;42.624;23.334;2022-11-20T10:47:31;92645.19;;;16.62;100.00
12475;BME280;6302;42.624;23.334;2022-11-20T10:50:03;92652.16;;;16.59;100.00
12475;BME280;6302;42.624;23.334;2022-11-20T10:52:38;92654.22;;;16.46;100.00
12475;BME280;6302;42.624;23.334;2022-11-20T10:55:19;92679.81;;;16.56;100.00
12475;BME280;6302;42.624;23.334;2022-11-20T10:57:54;92683.25;;;16.66;100.00
12475;BME280;6302;42.624;23.334;2022-11-20T11:00:25;92682.03;;;16.67;100.00
12475;BME280;6302;42.624;23.334;2022-11-20T11:02:53;92681.38;;;16.45;100.00
12475;BME280;6302;42.624;23.334;2022-11-20T11:05:31;92660.97;;;16.11;100.00
12475;BME280;6302;42.624;23.334;2022-11-20T11:08:00;92686.38;;;16.15;100.00
12475;BME280;6302;42.624;23.334;2022-11-20T11:10:35;92716.25;;;16.23;100.00
12475;BME280;6302;42.624;23.334;2022-11-20T11:13:03;92743.28;;;16.25;100.00
12475;BME280;6302;42.624;23.334;2022-11-20T11:15:37;92716.75;;;16.00;100.00
12475;BME280;6302;42.624;23.334;2022-11-20T11:18:04;92725.50;;;16.00;100.00
12475;BME280;6302;42.624;23.334;2022-11-20T11:20:33;92749.63;;;15.57;100.00
12475;BME280;6302;42.624;23.334;2022-11-20T11:23:00;92729.91;;;15.42;100.00
12475;BME280;6302;42.624;23.334;2022-11-20T11:25:29;92687.69;;;15.28;100.00
12475;BME280;6302;42.624;23.334;2022-11-20T11:28:01;92678.94;;;15.06;100.00
12475;BME280;6302;42.624;23.334;2022-11-20T11:30:29;92718.34;;;15.02;100.00
12475;BME280;6302;42.624;23.334;2022-11-20T11:33:10;92717.44;;;14.83;100.00
12475;BME280;6302;42.624;23.334;2022-11-20T11:35:44;92676.69;;;14.48;100.00
12475;BME280;6302;42.624;23.334;2022-11-20T11:38:14;92685.44;;;14.49;100.00
12475;BME280;6302;42.624;23.334;2022-11-20T11:40:43;92667.88;;;14.26;100.00
12475;BME280;6302;42.624;23.334;2022-11-20T11:43:19;92668.88;;;13.82;100.00
12475;BME280;6302;42.624;23.334;2022-11-20T11:46:19;92686.00;;;13.68;100.00
12475;BME280;6302;42.624;23.334;2022-11-20T11:48:55;92675.66;;;13.45;100.00
12475;BME280;6302;42.624;23.334;2022-11-20T11:51:26;92679.25;;;13.38;100.00
12475;BME280;6302;42.624;23.334;2022-11-20T11:53:57;92658.38;;;13.24;100.00
12475;BME280;6302;42.624;23.334;2022-11-20T11:56:25;92674.34;;;13.24;100.00
12475;BME280;6302;42.624;23.334;2022-11-20T11:58:57;92672.09;;;13.23;100.00
12475;BME280;6302;42.624;23.334;2022-11-20T12:01:31;92631.84;;;13.08;100.00
12475;BME280;6302;42.624;23.334;2022-11-20T12:04:03;92621.63;;;13.07;100.00
12475;BME280;6302;42.624;23.334;2022-11-20T12:06:36;92637.59;;;13.19;100.00
12475;BME280;6302;42.624;23.334;2022-11-20T12:09:08;92631.34;;;13.13;100.00
12475;BME280;6302;42.624;23.334;2022-11-20T12:11:43;92653.63;;;13.03;100.00
12475;BME280;6302;42.624;23.334;2022-11-20T12:14:16;92646.19;;;12.82;100.00
12475;BME280;6302;42.624;23.334;2022-11-20T12:16:49;92661.31;;;12.85;100.00
12475;BME280;6302;42.624;23.334;2022-11-20T12:19:18;92660.00;;;12.77;100.00
12475;BME280;6302;42.624;23.334;2022-11-20T12:21:53;92658.63;;;12.72;100.00
12475;BME280;6302;42.624;23.334;2022-11-20T12:24:44;92671.50;;;12.74;100.00
12475;BME280;6302;42.624;23.334;2022-11-20T12:27:39;92657.72;;;12.63;100.00
12475;BME280;6302;42.624;23.334;2022-11-20T12:30:12;92663.41;;;12.49;100.00
12475;BME280;6302;42.624;23.334;2022-11-20T12:35:44;92673.72;;;12.47;100.00
12475;BME280;6302;42.624;23.334;2022-11-20T12:38:30;92636.50;;;12.47;100.00
12475;BME280;6302;42.624;23.334;2022-11-20T12:41:05;92589.31;;;12.51;100.00
12475;BME280;6302;42.624;23.334;2022-11-20T12:43:40;92571.16;;;12.62;100.00
12475;BME280;6302;42.624;23.334;2022-11-20T12:46:30;92559.38;;;12.63;100.00
12475;BME280;6302;42.624;23.334;2022-11-20T12:49:21;92539.94;;;12.66;100.00
12475;BME280;6302;42.624;23.334;2022-11-20T12:52:01;92546.34;;;12.81;100.00
12475;BME280;6302;42.624;23.334;2022-11-20T12:54:56;92541.25;;;12.99;100.00
12475;BME280;6302;42.624;23.334;2022-11-20T12:57:31;92533.44;;;13.08;100.00
12475;BME280;6302;42.624;23.334;2022-11-20T13:00:11;92522.88;;;13.04;100.00
12475;BME280;6302;42.624;23.334;2022-11-20T13:03:00;92559.19;;;13.49;100.00
12475;BME280;6302;42.624;23.334;2022-11-20T13:05:37;92568.22;;;13.64;100.00
12475;BME280;6302;42.624;23.334;2022-11-20T13:08:14;92594.75;;;13.67;100.00
12475;BME280;6302;42.624;23.334;2022-11-20T13:10:50;92586.44;;;13.40;100.00
12475;BME280;6302;42.624;23.334;2022-11-20T13:13:23;92599.63;;;13.31;100.00
12475;BME280;6302;42.624;23.334;2022-11-20T13:15:56;92621.56;;;13.35;100.00